sensor_id;sensor_type;location;lat;lon;timestamp;P1;durP1;ratioP1;P2;durP2;ratioP2
78901;SDS011;70441;44.758;37.686;2023-11-19T00:00:20;8.45;;;4.10;;
78901;SDS011;70441;44.758;37.686;2023-11-19T00:01:22;7.82;;;3.50;;
78901;SDS011;70441;44.758;37.686;2023-11-19T00:02:23;8.23;;;3.53;;
78901;SDS011;70441;44.758;37.686;2023-11-19T00:03:25;9.48;;;3.55;;
78901;SDS011;70441;44.758;37.686;2023-11-19T00:04:26;7.82;;;3.60;;
78901;SDS011;70441;44.758;37.686;2023-11-19T00:05:28;8.80;;;3.40;;
78901;SDS011;70441;44.758;37.686;2023-11-19T00:06:30;10.40;;;4.10;;
78901;SDS011;70441;44.758;37.686;2023-11-19T00:07:32;9.48;;;4.80;;
78901;SDS011;70441;44.758;37.686;2023-11-19T00:08:33;9.52;;;3.83;;
78901;SDS011;70441;44.758;37.686;2023-11-19T00:09:35;9.38;;;3.92;;
78901;SDS011;70441;44.758;37.686;2023-11-19T00:10:38;8.70;;;3.80;;
78901;SDS011;70441;44.758;37.686;2023-11-19T00:11:39;10.18;;;3.90;;
78901;SDS011;70441;44.758;37.686;2023-11-19T00:12:41;11.60;;;3.90;;
78901;SDS011;70441;44.758;37.686;2023-11-19T00:13:45;9.02;;;3.55;;
78901;SDS011;70441;44.758;37.686;2023-11-19T00:14:46;7.75;;;3.70;;
78901;SDS011;70441;44.758;37.686;2023-11-19T00:15:48;8.13;;;3.60;;
78901;SDS011;70441;44.758;37.686;2023-11-19T00:16:49;7.32;;;3.33;;
78901;SDS011;70441;44.758;37.686;2023-11-19T00:17:52;12.57;;;3.65;;
78901;SDS011;70441;44.758;37.686;2023-11-19T00:18:53;8.20;;;3.67;;
78901;SDS011;70441;44.758;37.686;2023-11-19T00:19:55;8.73;;;3.78;;
78901;SDS011;70441;44.758;37.686;2023-11-19T00:20:56;8.75;;;3.38;;
78901;SDS011;70441;44.758;37.686;2023-11-19T00:21:58;8.63;;;3.70;;
78901;SDS011;70441;44.758;37.686;2023-11-19T00:23:03;8.55;;;3.65;;
78901;SDS011;70441;44.758;37.686;2023-11-19T00:24:05;8.32;;;3.42;;
78901;SDS011;70441;44.758;37.686;2023-11-19T00:25:08;11.00;;;3.78;;
78901;SDS011;70441;44.758;37.686;2023-11-19T00:26:10;9.27;;;3.72;;
78901;SDS011;70441;44.758;37.686;2023-11-19T00:27:15;8.70;;;3.60;;
78901;SDS011;70441;44.758;37.686;2023-11-19T00:28:18;8.45;;;4.43;;
78901;SDS011;70441;44.758;37.686;2023-11-19T00:29:20;9.98;;;3.58;;
78901;SDS011;70441;44.758;37.686;2023-11-19T00:30:22;11.75;;;4.20;;
78901;SDS011;70441;44.758;37.686;2023-11-19T00:31:23;11.80;;;3.85;;
78901;SDS011;70441;44.758;37.686;2023-11-19T00:32:25;8.10;;;3.97;;
78901;SDS011;70441;44.758;37.686;2023-11-19T00:33:27;9.18;;;3.80;;
78901;SDS011;70441;44.758;37.686;2023-11-19T00:34:28;8.25;;;3.97;;
78901;SDS011;70441;44.758;37.686;2023-11-19T00:35:30;10.95;;;4.10;;
78901;SDS011;70441;44.758;37.686;2023-11-19T00:36:32;8.48;;;3.90;;
78901;SDS011;70441;44.758;37.686;2023-11-19T00:37:34;10.90;;;4.28;;
78901;SDS011;70441;44.758;37.686;2023-11-19T00:38:36;9.02;;;3.60;;
78901;SDS011;70441;44.758;37.686;2023-11-19T00:39:37;9.82;;;4.35;;
78901;SDS011;70441;44.758;37.686;2023-11-19T00:40:39;10.63;;;4.00;;
78901;SDS011;70441;44.758;37.686;2023-11-19T00:41:41;9.95;;;3.95;;
78901;SDS011;70441;44.758;37.686;2023-11-19T00:42:43;9.07;;;3.40;;
78901;SDS011;70441;44.758;37.686;2023-11-19T00:43:45;8.50;;;3.90;;
78901;SDS011;70441;44.758;37.686;2023-11-19T00:44:46;8.63;;;3.88;;
78901;SDS011;70441;44.758;37.686;2023-11-19T00:45:48;9.35;;;3.88;;
78901;SDS011;70441;44.758;37.686;2023-11-19T00:46:51;9.90;;;3.90;;
78901;SDS011;70441;44.758;37.686;2023-11-19T00:47:52;10.30;;;3.92;;
78901;SDS011;70441;44.758;37.686;2023-11-19T00:48:53;10.15;;;3.85;;
78901;SDS011;70441;44.758;37.686;2023-11-19T00:49:55;10.68;;;4.07;;
78901;SDS011;70441;44.758;37.686;2023-11-19T00:50:57;9.10;;;3.63;;
78901;SDS011;70441;44.758;37.686;2023-11-19T00:51:58;11.68;;;3.78;;
78901;SDS011;70441;44.758;37.686;2023-11-19T00:53:00;8.88;;;3.97;;
78901;SDS011;70441;44.758;37.686;2023-11-19T00:54:04;9.30;;;3.47;;
78901;SDS011;70441;44.758;37.686;2023-11-19T00:55:05;7.45;;;3.65;;
78901;SDS011;70441;44.758;37.686;2023-11-19T00:56:07;8.65;;;3.53;;
78901;SDS011;70441;44.758;37.686;2023-11-19T00:57:09;10.10;;;3.90;;
78901;SDS011;70441;44.758;37.686;2023-11-19T00:58:11;10.93;;;4.55;;
78901;SDS011;70441;44.758;37.686;2023-11-19T00:59:12;9.98;;;4.30;;
78901;SDS011;70441;44.758;37.686;2023-11-19T01:00:14;9.93;;;3.80;;
78901;SDS011;70441;44.758;37.686;2023-11-19T01:01:19;10.13;;;3.90;;
78901;SDS011;70441;44.758;37.686;2023-11-19T01:02:20;7.63;;;3.22;;
78901;SDS011;70441;44.758;37.686;2023-11-19T01:03:21;9.32;;;3.40;;
78901;SDS011;70441;44.758;37.686;2023-11-19T01:04:22;9.10;;;4.45;;
78901;SDS011;70441;44.758;37.686;2023-11-19T01:05:25;8.18;;;3.45;;
78901;SDS011;70441;44.758;37.686;2023-11-19T01:06:30;10.63;;;4.20;;
78901;SDS011;70441;44.758;37.686;2023-11-19T01:07:31;8.23;;;3.70;;
78901;SDS011;70441;44.758;37.686;2023-11-19T01:08:32;8.77;;;3.88;;
78901;SDS011;70441;44.758;37.686;2023-11-19T01:09:36;12.05;;;4.20;;
78901;SDS011;70441;44.758;37.686;2023-11-19T01:10:37;12.70;;;4.82;;
78901;SDS011;70441;44.758;37.686;2023-11-19T01:11:39;11.10;;;4.50;;
78901;SDS011;70441;44.758;37.686;2023-11-19T01:12:40;9.65;;;3.22;;
78901;SDS011;70441;44.758;37.686;2023-11-19T01:13:42;8.77;;;3.45;;
78901;SDS011;70441;44.758;37.686;2023-11-19T01:14:44;10.70;;;3.97;;
78901;SDS011;70441;44.758;37.686;2023-11-19T01:15:46;11.13;;;4.13;;
78901;SDS011;70441;44.758;37.686;2023-11-19T01:16:48;8.88;;;4.25;;
78901;SDS011;70441;44.758;37.686;2023-11-19T01:17:50;10.20;;;4.18;;
78901;SDS011;70441;44.758;37.686;2023-11-19T01:18:51;8.82;;;3.90;;
78901;SDS011;70441;44.758;37.686;2023-11-19T01:19:53;8.93;;;3.55;;
78901;SDS011;70441;44.758;37.686;2023-11-19T01:20:55;9.55;;;4.05;;
78901;SDS011;70441;44.758;37.686;2023-11-19T01:21:56;8.93;;;4.20;;
78901;SDS011;70441;44.758;37.686;2023-11-19T01:22:57;10.13;;;4.25;;
78901;SDS011;70441;44.758;37.686;2023-11-19T01:23:58;11.52;;;3.90;;
78901;SDS011;70441;44.758;37.686;2023-11-19T01:25:00;13.80;;;3.55;;
78901;SDS011;70441;44.758;37.686;2023-11-19T01:26:02;8.82;;;3.75;;
78901;SDS011;70441;44.758;37.686;2023-11-19T01:27:06;7.93;;;3.70;;
78901;SDS011;70441;44.758;37.686;2023-11-19T01:28:07;10.57;;;4.22;;
78901;SDS011;70441;44.758;37.686;2023-11-19T01:29:08;10.65;;;4.45;;
78901;SDS011;70441;44.758;37.686;2023-11-19T01:30:10;11.63;;;4.55;;
78901;SDS011;70441;44.758;37.686;2023-11-19T01:31:16;10.13;;;3.53;;
78901;SDS011;70441;44.758;37.686;2023-11-19T01:32:17;7.13;;;3.05;;
78901;SDS011;70441;44.758;37.686;2023-11-19T01:33:18;12.88;;;4.63;;
78901;SDS011;70441;44.758;37.686;2023-11-19T01:34:20;6.20;;;2.72;;
78901;SDS011;70441;44.758;37.686;2023-11-19T01:35:21;9.15;;;3.20;;
78901;SDS011;70441;44.758;37.686;2023-11-19T01:36:25;8.40;;;3.42;;
78901;SDS011;70441;44.758;37.686;2023-11-19T01:37:27;10.15;;;3.85;;
78901;SDS011;70441;44.758;37.686;2023-11-19T01:38:28;11.32;;;3.63;;
78901;SDS011;70441;44.758;37.686;2023-11-19T01:39:29;9.32;;;3.50;;
78901;SDS011;70441;44.758;37.686;2023-11-19T01:40:30;7.50;;;3.13;;
78901;SDS011;70441;44.758;37.686;2023-11-19T01:41:35;10.02;;;3.83;;
78901;SDS011;70441;44.758;37.686;2023-11-19T01:42:40;7.88;;;3.40;;
78901;SDS011;70441;44.758;37.686;2023-11-19T01:43:41;8.27;;;3.78;;
78901;SDS011;70441;44.758;37.686;2023-11-19T01:44:53;7.75;;;3.40;;
78901;SDS011;70441;44.758;37.686;2023-11-19T01:45:58;10.52;;;4.00;;
78901;SDS011;70441;44.758;37.686;2023-11-19T01:47:00;9.68;;;4.13;;
78901;SDS011;70441;44.758;37.686;2023-11-19T01:48:02;9.77;;;3.88;;
78901;SDS011;70441;44.758;37.686;2023-11-19T01:49:05;9.02;;;3.20;;
78901;SDS011;70441;44.758;37.686;2023-11-19T01:50:07;7.53;;;3.22;;
78901;SDS011;70441;44.758;37.686;2023-11-19T01:51:10;9.25;;;3.63;;
78901;SDS011;70441;44.758;37.686;2023-11-19T01:52:13;10.23;;;3.80;;
78901;SDS011;70441;44.758;37.686;2023-11-19T01:53:15;9.27;;;3.80;;
78901;SDS011;70441;44.758;37.686;2023-11-19T01:55:19;11.70;;;3.97;;
78901;SDS011;70441;44.758;37.686;2023-11-19T01:56:22;8.85;;;3.80;;
78901;SDS011;70441;44.758;37.686;2023-11-19T01:57:25;10.40;;;4.05;;
78901;SDS011;70441;44.758;37.686;2023-11-19T01:58:26;7.47;;;3.45;;
78901;SDS011;70441;44.758;37.686;2023-11-19T01:59:30;9.10;;;3.83;;
78901;SDS011;70441;44.758;37.686;2023-11-19T02:00:32;9.32;;;3.85;;
78901;SDS011;70441;44.758;37.686;2023-11-19T02:01:34;9.07;;;4.13;;
78901;SDS011;70441;44.758;37.686;2023-11-19T02:02:40;11.30;;;3.85;;
78901;SDS011;70441;44.758;37.686;2023-11-19T02:03:42;10.02;;;4.07;;
78901;SDS011;70441;44.758;37.686;2023-11-19T02:04:44;10.77;;;4.35;;
78901;SDS011;70441;44.758;37.686;2023-11-19T02:05:47;8.82;;;4.07;;
78901;SDS011;70441;44.758;37.686;2023-11-19T02:06:49;9.30;;;3.90;;
78901;SDS011;70441;44.758;37.686;2023-11-19T02:07:55;7.35;;;3.28;;
78901;SDS011;70441;44.758;37.686;2023-11-19T02:08:56;9.50;;;3.95;;
78901;SDS011;70441;44.758;37.686;2023-11-19T02:09:58;8.98;;;4.15;;
78901;SDS011;70441;44.758;37.686;2023-11-19T02:11:01;9.75;;;4.72;;
78901;SDS011;70441;44.758;37.686;2023-11-19T02:12:02;10.40;;;4.63;;
78901;SDS011;70441;44.758;37.686;2023-11-19T02:13:05;11.18;;;4.25;;
78901;SDS011;70441;44.758;37.686;2023-11-19T02:14:11;11.35;;;4.40;;
78901;SDS011;70441;44.758;37.686;2023-11-19T02:15:12;12.48;;;4.68;;
78901;SDS011;70441;44.758;37.686;2023-11-19T02:16:14;8.95;;;4.40;;
78901;SDS011;70441;44.758;37.686;2023-11-19T02:17:27;10.10;;;4.63;;
78901;SDS011;70441;44.758;37.686;2023-11-19T02:18:29;10.10;;;4.53;;
78901;SDS011;70441;44.758;37.686;2023-11-19T02:19:31;8.95;;;4.30;;
78901;SDS011;70441;44.758;37.686;2023-11-19T02:20:33;10.90;;;4.18;;
78901;SDS011;70441;44.758;37.686;2023-11-19T02:21:35;9.93;;;4.05;;
78901;SDS011;70441;44.758;37.686;2023-11-19T02:22:36;9.18;;;4.43;;
78901;SDS011;70441;44.758;37.686;2023-11-19T02:23:38;10.88;;;4.57;;
78901;SDS011;70441;44.758;37.686;2023-11-19T02:24:39;10.80;;;4.60;;
78901;SDS011;70441;44.758;37.686;2023-11-19T02:25:41;12.63;;;5.00;;
78901;SDS011;70441;44.758;37.686;2023-11-19T02:28:03;9.30;;;4.05;;
78901;SDS011;70441;44.758;37.686;2023-11-19T02:29:06;11.10;;;4.57;;
78901;SDS011;70441;44.758;37.686;2023-11-19T02:31:10;9.43;;;4.00;;
78901;SDS011;70441;44.758;37.686;2023-11-19T02:32:12;8.63;;;4.07;;
78901;SDS011;70441;44.758;37.686;2023-11-19T02:33:14;9.05;;;4.05;;
78901;SDS011;70441;44.758;37.686;2023-11-19T02:34:16;11.43;;;4.35;;
78901;SDS011;70441;44.758;37.686;2023-11-19T02:35:17;8.75;;;3.78;;
78901;SDS011;70441;44.758;37.686;2023-11-19T02:36:19;9.43;;;3.90;;
78901;SDS011;70441;44.758;37.686;2023-11-19T02:37:21;9.38;;;4.03;;
78901;SDS011;70441;44.758;37.686;2023-11-19T02:38:22;8.82;;;3.78;;
78901;SDS011;70441;44.758;37.686;2023-11-19T02:39:24;7.90;;;3.53;;
78901;SDS011;70441;44.758;37.686;2023-11-19T02:40:25;9.15;;;3.83;;
78901;SDS011;70441;44.758;37.686;2023-11-19T02:41:27;9.27;;;4.07;;
78901;SDS011;70441;44.758;37.686;2023-11-19T02:42:29;7.43;;;3.67;;
78901;SDS011;70441;44.758;37.686;2023-11-19T02:43:31;9.82;;;4.30;;
78901;SDS011;70441;44.758;37.686;2023-11-19T02:44:34;10.45;;;3.95;;
78901;SDS011;70441;44.758;37.686;2023-11-19T02:45:38;8.60;;;3.67;;
78901;SDS011;70441;44.758;37.686;2023-11-19T02:46:39;8.90;;;3.35;;
78901;SDS011;70441;44.758;37.686;2023-11-19T02:47:43;9.27;;;3.92;;
78901;SDS011;70441;44.758;37.686;2023-11-19T02:48:45;10.77;;;4.50;;
78901;SDS011;70441;44.758;37.686;2023-11-19T02:49:46;9.38;;;3.78;;
78901;SDS011;70441;44.758;37.686;2023-11-19T02:50:48;8.80;;;3.70;;
78901;SDS011;70441;44.758;37.686;2023-11-19T02:51:49;8.40;;;3.63;;
78901;SDS011;70441;44.758;37.686;2023-11-19T02:52:54;9.32;;;4.47;;
78901;SDS011;70441;44.758;37.686;2023-11-19T02:53:57;11.60;;;4.43;;
78901;SDS011;70441;44.758;37.686;2023-11-19T02:54:59;13.60;;;4.30;;
78901;SDS011;70441;44.758;37.686;2023-11-19T02:56:00;10.85;;;4.03;;
78901;SDS011;70441;44.758;37.686;2023-11-19T02:57:07;9.85;;;4.53;;
78901;SDS011;70441;44.758;37.686;2023-11-19T02:58:11;8.88;;;3.80;;
78901;SDS011;70441;44.758;37.686;2023-11-19T02:59:21;10.88;;;4.75;;
78901;SDS011;70441;44.758;37.686;2023-11-19T03:00:28;8.93;;;4.25;;
78901;SDS011;70441;44.758;37.686;2023-11-19T03:01:48;9.40;;;4.85;;
78901;SDS011;70441;44.758;37.686;2023-11-19T03:02:51;9.65;;;4.60;;
78901;SDS011;70441;44.758;37.686;2023-11-19T03:04:11;9.43;;;4.70;;
78901;SDS011;70441;44.758;37.686;2023-11-19T03:05:13;9.57;;;4.35;;
78901;SDS011;70441;44.758;37.686;2023-11-19T03:06:15;9.65;;;4.90;;
78901;SDS011;70441;44.758;37.686;2023-11-19T03:07:16;10.02;;;4.35;;
78901;SDS011;70441;44.758;37.686;2023-11-19T03:08:18;9.07;;;4.43;;
78901;SDS011;70441;44.758;37.686;2023-11-19T03:09:19;9.52;;;4.30;;
78901;SDS011;70441;44.758;37.686;2023-11-19T03:10:20;10.32;;;4.60;;
78901;SDS011;70441;44.758;37.686;2023-11-19T03:11:22;8.43;;;3.95;;
78901;SDS011;70441;44.758;37.686;2023-11-19T03:12:23;9.43;;;4.28;;
78901;SDS011;70441;44.758;37.686;2023-11-19T03:13:25;8.10;;;4.25;;
78901;SDS011;70441;44.758;37.686;2023-11-19T03:14:27;9.02;;;4.43;;
78901;SDS011;70441;44.758;37.686;2023-11-19T03:15:28;9.40;;;4.47;;
78901;SDS011;70441;44.758;37.686;2023-11-19T03:16:30;9.00;;;4.90;;
78901;SDS011;70441;44.758;37.686;2023-11-19T03:17:31;10.85;;;4.63;;
78901;SDS011;70441;44.758;37.686;2023-11-19T03:18:32;11.65;;;5.10;;
78901;SDS011;70441;44.758;37.686;2023-11-19T03:19:33;10.88;;;4.63;;
78901;SDS011;70441;44.758;37.686;2023-11-19T03:20:35;10.52;;;4.70;;
78901;SDS011;70441;44.758;37.686;2023-11-19T03:21:36;9.10;;;4.40;;
78901;SDS011;70441;44.758;37.686;2023-11-19T03:22:37;9.90;;;4.70;;
78901;SDS011;70441;44.758;37.686;2023-11-19T03:23:39;11.02;;;4.75;;
78901;SDS011;70441;44.758;37.686;2023-11-19T03:24:41;11.32;;;5.38;;
78901;SDS011;70441;44.758;37.686;2023-11-19T03:25:42;9.43;;;5.05;;
78901;SDS011;70441;44.758;37.686;2023-11-19T03:26:48;8.70;;;4.30;;
78901;SDS011;70441;44.758;37.686;2023-11-19T03:27:51;8.43;;;4.13;;
78901;SDS011;70441;44.758;37.686;2023-11-19T03:28:52;10.98;;;4.55;;
78901;SDS011;70441;44.758;37.686;2023-11-19T03:29:53;9.80;;;3.65;;
78901;SDS011;70441;44.758;37.686;2023-11-19T03:30:55;9.32;;;3.67;;
78901;SDS011;70441;44.758;37.686;2023-11-19T03:31:56;9.25;;;3.80;;
78901;SDS011;70441;44.758;37.686;2023-11-19T03:32:58;8.13;;;3.80;;
78901;SDS011;70441;44.758;37.686;2023-11-19T03:34:03;12.90;;;4.28;;
78901;SDS011;70441;44.758;37.686;2023-11-19T03:35:05;11.65;;;4.72;;
78901;SDS011;70441;44.758;37.686;2023-11-19T03:36:10;8.38;;;4.05;;
78901;SDS011;70441;44.758;37.686;2023-11-19T03:37:11;9.55;;;4.75;;
78901;SDS011;70441;44.758;37.686;2023-11-19T03:38:13;9.15;;;4.70;;
78901;SDS011;70441;44.758;37.686;2023-11-19T03:39:15;11.00;;;5.35;;
78901;SDS011;70441;44.758;37.686;2023-11-19T03:40:16;8.63;;;4.10;;
78901;SDS011;70441;44.758;37.686;2023-11-19T03:41:21;8.43;;;4.57;;
78901;SDS011;70441;44.758;37.686;2023-11-19T03:42:22;10.48;;;4.60;;
78901;SDS011;70441;44.758;37.686;2023-11-19T03:43:24;9.27;;;5.07;;
78901;SDS011;70441;44.758;37.686;2023-11-19T03:44:26;12.88;;;5.35;;
78901;SDS011;70441;44.758;37.686;2023-11-19T03:45:28;9.48;;;4.80;;
78901;SDS011;70441;44.758;37.686;2023-11-19T03:46:29;10.05;;;4.38;;
78901;SDS011;70441;44.758;37.686;2023-11-19T03:47:30;10.98;;;5.15;;
78901;SDS011;70441;44.758;37.686;2023-11-19T03:48:32;9.15;;;4.45;;
78901;SDS011;70441;44.758;37.686;2023-11-19T03:49:33;11.00;;;4.28;;
78901;SDS011;70441;44.758;37.686;2023-11-19T03:50:34;11.60;;;5.00;;
78901;SDS011;70441;44.758;37.686;2023-11-19T03:51:35;10.93;;;4.78;;
78901;SDS011;70441;44.758;37.686;2023-11-19T03:52:37;11.15;;;4.55;;
78901;SDS011;70441;44.758;37.686;2023-11-19T03:53:38;11.05;;;4.60;;
78901;SDS011;70441;44.758;37.686;2023-11-19T03:54:39;11.68;;;4.93;;
78901;SDS011;70441;44.758;37.686;2023-11-19T03:55:41;12.05;;;4.75;;
78901;SDS011;70441;44.758;37.686;2023-11-19T03:56:42;9.50;;;4.40;;
78901;SDS011;70441;44.758;37.686;2023-11-19T03:57:43;9.68;;;4.65;;
78901;SDS011;70441;44.758;37.686;2023-11-19T03:58:45;9.00;;;4.18;;
78901;SDS011;70441;44.758;37.686;2023-11-19T03:59:46;12.23;;;5.07;;
78901;SDS011;70441;44.758;37.686;2023-11-19T04:00:47;10.00;;;5.18;;
78901;SDS011;70441;44.758;37.686;2023-11-19T04:01:49;10.15;;;4.68;;
78901;SDS011;70441;44.758;37.686;2023-11-19T04:02:50;8.32;;;4.47;;
78901;SDS011;70441;44.758;37.686;2023-11-19T04:03:51;10.35;;;4.22;;
78901;SDS011;70441;44.758;37.686;2023-11-19T04:04:54;10.50;;;4.47;;
78901;SDS011;70441;44.758;37.686;2023-11-19T04:05:56;9.75;;;4.57;;
78901;SDS011;70441;44.758;37.686;2023-11-19T04:06:57;10.45;;;4.80;;
78901;SDS011;70441;44.758;37.686;2023-11-19T04:07:59;11.40;;;4.63;;
78901;SDS011;70441;44.758;37.686;2023-11-19T04:09:00;10.85;;;4.82;;
78901;SDS011;70441;44.758;37.686;2023-11-19T04:10:01;9.90;;;4.40;;
78901;SDS011;70441;44.758;37.686;2023-11-19T04:11:03;10.60;;;4.38;;
78901;SDS011;70441;44.758;37.686;2023-11-19T04:12:06;11.80;;;5.32;;
78901;SDS011;70441;44.758;37.686;2023-11-19T04:13:07;10.55;;;5.13;;
78901;SDS011;70441;44.758;37.686;2023-11-19T04:14:08;10.15;;;4.65;;
78901;SDS011;70441;44.758;37.686;2023-11-19T04:15:11;9.52;;;4.55;;
78901;SDS011;70441;44.758;37.686;2023-11-19T04:16:12;13.73;;;5.10;;
78901;SDS011;70441;44.758;37.686;2023-11-19T04:17:16;9.65;;;4.30;;
78901;SDS011;70441;44.758;37.686;2023-11-19T04:18:17;8.10;;;3.97;;
78901;SDS011;70441;44.758;37.686;2023-11-19T04:19:18;11.57;;;4.70;;
78901;SDS011;70441;44.758;37.686;2023-11-19T04:21:24;9.15;;;4.20;;
78901;SDS011;70441;44.758;37.686;2023-11-19T04:22:26;8.73;;;4.47;;
78901;SDS011;70441;44.758;37.686;2023-11-19T04:23:27;9.82;;;4.72;;
78901;SDS011;70441;44.758;37.686;2023-11-19T04:24:28;10.98;;;4.50;;
78901;SDS011;70441;44.758;37.686;2023-11-19T04:25:30;11.98;;;5.22;;
78901;SDS011;70441;44.758;37.686;2023-11-19T04:26:31;8.85;;;3.63;;
78901;SDS011;70441;44.758;37.686;2023-11-19T04:27:32;9.43;;;4.63;;
78901;SDS011;70441;44.758;37.686;2023-11-19T04:29:36;9.05;;;4.47;;
78901;SDS011;70441;44.758;37.686;2023-11-19T04:30:37;9.35;;;4.07;;
78901;SDS011;70441;44.758;37.686;2023-11-19T04:31:38;8.38;;;4.05;;
78901;SDS011;70441;44.758;37.686;2023-11-19T04:32:40;6.32;;;2.33;;
78901;SDS011;70441;44.758;37.686;2023-11-19T04:33:46;9.52;;;4.18;;
78901;SDS011;70441;44.758;37.686;2023-11-19T04:34:47;6.93;;;2.95;;
78901;SDS011;70441;44.758;37.686;2023-11-19T04:35:49;10.07;;;4.60;;
78901;SDS011;70441;44.758;37.686;2023-11-19T04:36:50;8.93;;;3.92;;
78901;SDS011;70441;44.758;37.686;2023-11-19T04:37:51;10.10;;;4.50;;
78901;SDS011;70441;44.758;37.686;2023-11-19T04:38:53;9.32;;;4.28;;
78901;SDS011;70441;44.758;37.686;2023-11-19T04:39:54;8.68;;;3.47;;
78901;SDS011;70441;44.758;37.686;2023-11-19T04:40:55;9.40;;;3.90;;
78901;SDS011;70441;44.758;37.686;2023-11-19T04:43:00;8.88;;;2.85;;
78901;SDS011;70441;44.758;37.686;2023-11-19T04:44:01;9.70;;;3.40;;
78901;SDS011;70441;44.758;37.686;2023-11-19T04:45:03;10.15;;;4.35;;
78901;SDS011;70441;44.758;37.686;2023-11-19T04:46:07;8.45;;;3.40;;
78901;SDS011;70441;44.758;37.686;2023-11-19T04:47:10;8.80;;;3.58;;
78901;SDS011;70441;44.758;37.686;2023-11-19T04:48:12;8.27;;;3.53;;
78901;SDS011;70441;44.758;37.686;2023-11-19T04:49:13;11.60;;;4.13;;
78901;SDS011;70441;44.758;37.686;2023-11-19T04:50:19;8.38;;;2.97;;
78901;SDS011;70441;44.758;37.686;2023-11-19T04:51:22;7.20;;;3.22;;
78901;SDS011;70441;44.758;37.686;2023-11-19T04:52:24;7.60;;;3.13;;
78901;SDS011;70441;44.758;37.686;2023-11-19T04:53:25;8.65;;;2.92;;
78901;SDS011;70441;44.758;37.686;2023-11-19T04:54:26;7.97;;;2.65;;
78901;SDS011;70441;44.758;37.686;2023-11-19T04:55:28;7.15;;;3.50;;
78901;SDS011;70441;44.758;37.686;2023-11-19T04:56:29;7.53;;;3.38;;
78901;SDS011;70441;44.758;37.686;2023-11-19T04:57:30;7.93;;;3.08;;
78901;SDS011;70441;44.758;37.686;2023-11-19T04:58:33;12.02;;;3.47;;
78901;SDS011;70441;44.758;37.686;2023-11-19T04:59:34;8.98;;;3.90;;
78901;SDS011;70441;44.758;37.686;2023-11-19T05:00:36;7.50;;;3.38;;
78901;SDS011;70441;44.758;37.686;2023-11-19T05:01:37;7.95;;;3.60;;
78901;SDS011;70441;44.758;37.686;2023-11-19T05:02:39;9.30;;;3.63;;
78901;SDS011;70441;44.758;37.686;2023-11-19T05:03:40;9.95;;;3.88;;
78901;SDS011;70441;44.758;37.686;2023-11-19T05:04:42;8.48;;;3.70;;
78901;SDS011;70441;44.758;37.686;2023-11-19T05:05:45;7.93;;;3.15;;
78901;SDS011;70441;44.758;37.686;2023-11-19T05:06:46;7.70;;;3.55;;
78901;SDS011;70441;44.758;37.686;2023-11-19T05:07:50;8.70;;;3.95;;
78901;SDS011;70441;44.758;37.686;2023-11-19T05:08:52;8.30;;;3.15;;
78901;SDS011;70441;44.758;37.686;2023-11-19T05:09:53;7.82;;;3.20;;
78901;SDS011;70441;44.758;37.686;2023-11-19T05:10:56;7.88;;;3.05;;
78901;SDS011;70441;44.758;37.686;2023-11-19T05:13:00;7.93;;;3.55;;
78901;SDS011;70441;44.758;37.686;2023-11-19T05:14:21;6.88;;;2.83;;
78901;SDS011;70441;44.758;37.686;2023-11-19T05:15:22;7.97;;;3.13;;
78901;SDS011;70441;44.758;37.686;2023-11-19T05:16:25;8.40;;;3.15;;
78901;SDS011;70441;44.758;37.686;2023-11-19T05:17:29;7.35;;;3.25;;
78901;SDS011;70441;44.758;37.686;2023-11-19T05:18:31;9.15;;;3.75;;
78901;SDS011;70441;44.758;37.686;2023-11-19T05:19:32;8.15;;;3.30;;
78901;SDS011;70441;44.758;37.686;2023-11-19T05:20:34;9.80;;;3.90;;
78901;SDS011;70441;44.758;37.686;2023-11-19T05:21:35;7.47;;;3.25;;
78901;SDS011;70441;44.758;37.686;2023-11-19T05:22:36;7.75;;;3.65;;
78901;SDS011;70441;44.758;37.686;2023-11-19T05:23:38;7.78;;;3.47;;
78901;SDS011;70441;44.758;37.686;2023-11-19T05:24:39;7.97;;;3.35;;
78901;SDS011;70441;44.758;37.686;2023-11-19T05:25:41;8.25;;;3.80;;
78901;SDS011;70441;44.758;37.686;2023-11-19T05:26:43;9.25;;;3.63;;
78901;SDS011;70441;44.758;37.686;2023-11-19T05:27:44;10.52;;;4.10;;
78901;SDS011;70441;44.758;37.686;2023-11-19T05:28:45;8.45;;;3.20;;
78901;SDS011;70441;44.758;37.686;2023-11-19T05:29:47;7.70;;;3.67;;
78901;SDS011;70441;44.758;37.686;2023-11-19T05:30:48;5.53;;;2.33;;
78901;SDS011;70441;44.758;37.686;2023-11-19T05:31:49;7.03;;;2.88;;
78901;SDS011;70441;44.758;37.686;2023-11-19T05:32:51;7.68;;;3.58;;
78901;SDS011;70441;44.758;37.686;2023-11-19T05:33:52;9.70;;;4.00;;
78901;SDS011;70441;44.758;37.686;2023-11-19T05:34:53;9.07;;;3.70;;
78901;SDS011;70441;44.758;37.686;2023-11-19T05:35:55;7.55;;;3.20;;
78901;SDS011;70441;44.758;37.686;2023-11-19T05:36:57;8.02;;;3.20;;
78901;SDS011;70441;44.758;37.686;2023-11-19T05:37:59;10.20;;;3.35;;
78901;SDS011;70441;44.758;37.686;2023-11-19T05:39:00;7.00;;;3.05;;
78901;SDS011;70441;44.758;37.686;2023-11-19T05:40:01;7.28;;;3.00;;
78901;SDS011;70441;44.758;37.686;2023-11-19T05:41:09;9.48;;;2.97;;
78901;SDS011;70441;44.758;37.686;2023-11-19T05:42:10;10.55;;;3.95;;
78901;SDS011;70441;44.758;37.686;2023-11-19T05:43:12;6.70;;;2.78;;
78901;SDS011;70441;44.758;37.686;2023-11-19T05:44:13;8.15;;;3.13;;
78901;SDS011;70441;44.758;37.686;2023-11-19T05:45:14;8.35;;;3.15;;
78901;SDS011;70441;44.758;37.686;2023-11-19T05:46:25;7.82;;;3.42;;
78901;SDS011;70441;44.758;37.686;2023-11-19T05:47:28;7.03;;;3.28;;
78901;SDS011;70441;44.758;37.686;2023-11-19T05:48:29;7.38;;;3.33;;
78901;SDS011;70441;44.758;37.686;2023-11-19T05:49:31;8.43;;;3.30;;
78901;SDS011;70441;44.758;37.686;2023-11-19T05:50:32;5.82;;;2.55;;
78901;SDS011;70441;44.758;37.686;2023-11-19T05:51:40;6.95;;;3.15;;
78901;SDS011;70441;44.758;37.686;2023-11-19T05:53:49;5.82;;;2.33;;
78901;SDS011;70441;44.758;37.686;2023-11-19T05:54:53;7.22;;;2.50;;
78901;SDS011;70441;44.758;37.686;2023-11-19T05:55:55;9.70;;;2.83;;
78901;SDS011;70441;44.758;37.686;2023-11-19T05:56:56;5.88;;;2.70;;
78901;SDS011;70441;44.758;37.686;2023-11-19T05:57:58;5.85;;;2.35;;
78901;SDS011;70441;44.758;37.686;2023-11-19T05:58:59;7.25;;;2.83;;
78901;SDS011;70441;44.758;37.686;2023-11-19T06:00:02;8.05;;;2.58;;
78901;SDS011;70441;44.758;37.686;2023-11-19T06:01:12;6.32;;;2.75;;
78901;SDS011;70441;44.758;37.686;2023-11-19T06:02:13;7.82;;;2.70;;
78901;SDS011;70441;44.758;37.686;2023-11-19T06:03:15;8.27;;;2.80;;
78901;SDS011;70441;44.758;37.686;2023-11-19T06:04:16;6.88;;;2.80;;
78901;SDS011;70441;44.758;37.686;2023-11-19T06:05:17;7.32;;;2.80;;
78901;SDS011;70441;44.758;37.686;2023-11-19T06:06:19;7.93;;;3.10;;
78901;SDS011;70441;44.758;37.686;2023-11-19T06:07:20;7.25;;;2.30;;
78901;SDS011;70441;44.758;37.686;2023-11-19T06:08:21;7.38;;;2.80;;
78901;SDS011;70441;44.758;37.686;2023-11-19T06:09:23;6.93;;;2.40;;
78901;SDS011;70441;44.758;37.686;2023-11-19T06:10:24;6.63;;;2.70;;
78901;SDS011;70441;44.758;37.686;2023-11-19T06:11:32;7.38;;;2.50;;
78901;SDS011;70441;44.758;37.686;2023-11-19T06:12:35;7.55;;;2.42;;
78901;SDS011;70441;44.758;37.686;2023-11-19T06:13:38;6.47;;;2.20;;
78901;SDS011;70441;44.758;37.686;2023-11-19T06:14:40;6.05;;;2.45;;
78901;SDS011;70441;44.758;37.686;2023-11-19T06:15:42;8.57;;;3.80;;
78901;SDS011;70441;44.758;37.686;2023-11-19T06:16:44;9.10;;;3.83;;